sensor_id;sensor_type;location;lat;lon;timestamp;P1;durP1;ratioP1;P2;durP2;ratioP2
38379;SDS011;38377;47.418;18.882;2022-11-20T00:01:22;22.67;;;12.90;;
38379;SDS011;38377;47.418;18.882;2022-11-20T00:03:54;22.53;;;13.30;;
38379;SDS011;38377;47.418;18.882;2022-11-20T00:06:21;25.25;;;14.02;;
38379;SDS011;38377;47.418;18.882;2022-11-20T00:08:50;21.70;;;13.50;;
38379;SDS011;38377;47.418;18.882;2022-11-20T00:11:20;21.23;;;11.77;;
38379;SDS011;38377;47.418;18.882;2022-11-20T00:13:48;17.75;;;11.15;;
38379;SDS011;38377;47.418;18.882;2022-11-20T00:16:16;22.43;;;12.17;;
38379;SDS011;38377;47.418;18.882;2022-11-20T00:18:44;20.13;;;11.57;;
38379;SDS011;38377;47.418;18.882;2022-11-20T00:21:14;19.43;;;12.27;;
38379;SDS011;38377;47.418;18.882;2022-11-20T00:23:42;21.10;;;12.47;;
38379;SDS011;38377;47.418;18.882;2022-11-20T00:26:10;26.07;;;13.53;;
38379;SDS011;38377;47.418;18.882;2022-11-20T00:28:41;22.43;;;12.63;;
38379;SDS011;38377;47.418;18.882;2022-11-20T00:31:09;24.13;;;13.87;;
38379;SDS011;38377;47.418;18.882;2022-11-20T00:33:36;23.30;;;13.40;;
38379;SDS011;38377;47.418;18.882;2022-11-20T00:36:06;24.53;;;14.27;;
38379;SDS011;38377;47.418;18.882;2022-11-20T00:38:36;26.00;;;14.13;;
38379;SDS011;38377;47.418;18.882;2022-11-20T00:41:03;24.30;;;14.10;;
38379;SDS011;38377;47.418;18.882;2022-11-20T00:43:31;24.00;;;13.77;;
38379;SDS011;38377;47.418;18.882;2022-11-20T00:46:00;20.90;;;12.60;;
38379;SDS011;38377;47.418;18.882;2022-11-20T00:48:32;19.10;;;11.63;;
38379;SDS011;38377;47.418;18.882;2022-11-20T00:50:58;21.43;;;11.43;;
38379;SDS011;38377;47.418;18.882;2022-11-20T00:53:23;17.00;;;9.80;;
38379;SDS011;38377;47.418;18.882;2022-11-20T00:55:56;15.80;;;10.53;;
38379;SDS011;38377;47.418;18.882;2022-11-20T00:58:28;18.20;;;11.47;;
38379;SDS011;38377;47.418;18.882;2022-11-20T01:01:02;18.27;;;10.43;;
38379;SDS011;38377;47.418;18.882;2022-11-20T01:03:31;18.43;;;10.97;;
38379;SDS011;38377;47.418;18.882;2022-11-20T01:06:01;17.90;;;10.80;;
38379;SDS011;38377;47.418;18.882;2022-11-20T01:08:31;17.30;;;10.48;;
38379;SDS011;38377;47.418;18.882;2022-11-20T01:11:02;16.60;;;10.32;;
38379;SDS011;38377;47.418;18.882;2022-11-20T01:13:30;17.77;;;10.30;;
38379;SDS011;38377;47.418;18.882;2022-11-20T01:16:12;16.43;;;10.90;;
38379;SDS011;38377;47.418;18.882;2022-11-20T01:18:41;21.13;;;11.17;;
38379;SDS011;38377;47.418;18.882;2022-11-20T01:21:13;18.17;;;10.53;;
38379;SDS011;38377;47.418;18.882;2022-11-20T01:23:41;20.53;;;11.93;;
38379;SDS011;38377;47.418;18.882;2022-11-20T01:26:09;18.73;;;10.70;;
38379;SDS011;38377;47.418;18.882;2022-11-20T01:28:40;16.60;;;10.67;;
38379;SDS011;38377;47.418;18.882;2022-11-20T01:31:13;18.20;;;11.37;;
38379;SDS011;38377;47.418;18.882;2022-11-20T01:33:40;20.30;;;12.13;;
38379;SDS011;38377;47.418;18.882;2022-11-20T01:36:07;21.17;;;11.47;;
38379;SDS011;38377;47.418;18.882;2022-11-20T01:38:33;18.90;;;11.20;;
38379;SDS011;38377;47.418;18.882;2022-11-20T01:40:59;20.07;;;11.80;;
38379;SDS011;38377;47.418;18.882;2022-11-20T01:43:25;21.13;;;12.17;;
38379;SDS011;38377;47.418;18.882;2022-11-20T01:48:47;20.57;;;11.07;;
38379;SDS011;38377;47.418;18.882;2022-11-20T01:54:19;19.97;;;11.13;;
38379;SDS011;38377;47.418;18.882;2022-11-20T01:56:50;19.80;;;11.63;;
38379;SDS011;38377;47.418;18.882;2022-11-20T01:59:18;20.97;;;12.43;;
38379;SDS011;38377;47.418;18.882;2022-11-20T02:01:44;22.30;;;11.57;;
38379;SDS011;38377;47.418;18.882;2022-11-20T02:04:10;19.50;;;11.60;;
38379;SDS011;38377;47.418;18.882;2022-11-20T02:09:06;22.50;;;12.83;;
38379;SDS011;38377;47.418;18.882;2022-11-20T02:11:32;23.53;;;12.20;;
38379;SDS011;38377;47.418;18.882;2022-11-20T02:13:57;24.93;;;13.40;;
38379;SDS011;38377;47.418;18.882;2022-11-20T02:18:51;20.93;;;13.00;;
38379;SDS011;38377;47.418;18.882;2022-11-20T02:21:28;22.90;;;12.40;;
38379;SDS011;38377;47.418;18.882;2022-11-20T02:24:04;24.23;;;12.93;;
38379;SDS011;38377;47.418;18.882;2022-11-20T02:26:44;24.57;;;13.27;;
38379;SDS011;38377;47.418;18.882;2022-11-20T02:29:11;21.87;;;12.37;;
38379;SDS011;38377;47.418;18.882;2022-11-20T02:31:40;24.27;;;13.27;;
38379;SDS011;38377;47.418;18.882;2022-11-20T02:34:07;23.23;;;14.03;;
38379;SDS011;38377;47.418;18.882;2022-11-20T02:36:33;27.20;;;14.60;;
38379;SDS011;38377;47.418;18.882;2022-11-20T02:39:01;26.27;;;14.97;;
38379;SDS011;38377;47.418;18.882;2022-11-20T02:41:32;25.70;;;14.23;;
38379;SDS011;38377;47.418;18.882;2022-11-20T02:43:59;26.48;;;14.55;;
38379;SDS011;38377;47.418;18.882;2022-11-20T02:46:24;28.77;;;15.43;;
38379;SDS011;38377;47.418;18.882;2022-11-20T02:48:50;30.37;;;15.27;;
38379;SDS011;38377;47.418;18.882;2022-11-20T02:51:16;31.77;;;17.07;;
38379;SDS011;38377;47.418;18.882;2022-11-20T02:53:41;30.37;;;16.63;;
38379;SDS011;38377;47.418;18.882;2022-11-20T02:56:07;26.63;;;14.83;;
38379;SDS011;38377;47.418;18.882;2022-11-20T02:58:33;33.00;;;17.67;;
38379;SDS011;38377;47.418;18.882;2022-11-20T03:00:58;34.20;;;16.57;;
38379;SDS011;38377;47.418;18.882;2022-11-20T03:03:24;26.30;;;15.37;;
38379;SDS011;38377;47.418;18.882;2022-11-20T03:05:50;28.33;;;15.97;;
38379;SDS011;38377;47.418;18.882;2022-11-20T03:08:15;26.03;;;14.83;;
38379;SDS011;38377;47.418;18.882;2022-11-20T03:10:41;29.40;;;16.40;;
38379;SDS011;38377;47.418;18.882;2022-11-20T03:13:07;31.17;;;16.13;;
38379;SDS011;38377;47.418;18.882;2022-11-20T03:15:32;26.57;;;15.40;;
38379;SDS011;38377;47.418;18.882;2022-11-20T03:17:58;32.07;;;16.87;;
38379;SDS011;38377;47.418;18.882;2022-11-20T03:20:24;28.90;;;16.03;;
38379;SDS011;38377;47.418;18.882;2022-11-20T03:22:49;34.63;;;17.37;;
38379;SDS011;38377;47.418;18.882;2022-11-20T03:25:15;31.07;;;17.50;;
38379;SDS011;38377;47.418;18.882;2022-11-20T03:27:41;36.30;;;18.50;;
38379;SDS011;38377;47.418;18.882;2022-11-20T03:30:06;32.60;;;17.63;;
38379;SDS011;38377;47.418;18.882;2022-11-20T03:32:33;31.90;;;17.50;;
38379;SDS011;38377;47.418;18.882;2022-11-20T03:34:58;35.43;;;19.13;;
38379;SDS011;38377;47.418;18.882;2022-11-20T03:37:24;37.27;;;19.73;;
38379;SDS011;38377;47.418;18.882;2022-11-20T03:39:50;33.97;;;19.03;;
38379;SDS011;38377;47.418;18.882;2022-11-20T03:42:15;30.07;;;16.00;;
38379;SDS011;38377;47.418;18.882;2022-11-20T03:44:59;30.60;;;16.70;;
38379;SDS011;38377;47.418;18.882;2022-11-20T03:47:25;37.17;;;19.10;;
38379;SDS011;38377;47.418;18.882;2022-11-20T03:49:50;31.83;;;18.03;;
38379;SDS011;38377;47.418;18.882;2022-11-20T03:52:16;31.47;;;17.67;;
38379;SDS011;38377;47.418;18.882;2022-11-20T03:54:42;35.17;;;18.00;;
38379;SDS011;38377;47.418;18.882;2022-11-20T03:57:07;33.40;;;16.63;;
38379;SDS011;38377;47.418;18.882;2022-11-20T03:59:33;33.73;;;18.73;;
38379;SDS011;38377;47.418;18.882;2022-11-20T04:01:59;31.93;;;17.70;;
38379;SDS011;38377;47.418;18.882;2022-11-20T04:04:25;32.40;;;17.60;;
38379;SDS011;38377;47.418;18.882;2022-11-20T04:06:50;33.00;;;18.30;;
38379;SDS011;38377;47.418;18.882;2022-11-20T04:09:16;37.10;;;20.37;;
38379;SDS011;38377;47.418;18.882;2022-11-20T04:11:42;32.20;;;18.33;;
38379;SDS011;38377;47.418;18.882;2022-11-20T04:14:15;32.90;;;16.83;;
38379;SDS011;38377;47.418;18.882;2022-11-20T04:16:41;33.23;;;17.37;;
38379;SDS011;38377;47.418;18.882;2022-11-20T04:19:13;32.23;;;16.83;;
38379;SDS011;38377;47.418;18.882;2022-11-20T04:21:41;29.03;;;15.80;;
38379;SDS011;38377;47.418;18.882;2022-11-20T04:24:07;28.07;;;15.77;;
38379;SDS011;38377;47.418;18.882;2022-11-20T04:26:33;29.20;;;14.87;;
38379;SDS011;38377;47.418;18.882;2022-11-20T04:28:59;27.60;;;15.90;;
38379;SDS011;38377;47.418;18.882;2022-11-20T04:31:27;26.00;;;14.70;;
38379;SDS011;38377;47.418;18.882;2022-11-20T04:33:54;27.03;;;14.37;;
38379;SDS011;38377;47.418;18.882;2022-11-20T04:36:24;28.07;;;14.03;;
38379;SDS011;38377;47.418;18.882;2022-11-20T04:38:51;27.87;;;15.57;;
38379;SDS011;38377;47.418;18.882;2022-11-20T04:41:19;26.17;;;14.53;;
38379;SDS011;38377;47.418;18.882;2022-11-20T04:43:47;26.93;;;15.63;;
38379;SDS011;38377;47.418;18.882;2022-11-20T04:46:17;29.58;;;15.35;;
38379;SDS011;38377;47.418;18.882;2022-11-20T04:48:44;27.63;;;15.03;;
38379;SDS011;38377;47.418;18.882;2022-11-20T04:51:10;25.83;;;14.93;;
38379;SDS011;38377;47.418;18.882;2022-11-20T04:53:35;24.83;;;14.20;;
38379;SDS011;38377;47.418;18.882;2022-11-20T04:56:03;29.80;;;15.27;;
38379;SDS011;38377;47.418;18.882;2022-11-20T04:58:31;25.43;;;14.40;;
38379;SDS011;38377;47.418;18.882;2022-11-20T05:01:04;27.67;;;16.07;;
38379;SDS011;38377;47.418;18.882;2022-11-20T05:03:31;27.43;;;15.43;;
38379;SDS011;38377;47.418;18.882;2022-11-20T05:05:59;28.30;;;16.83;;
38379;SDS011;38377;47.418;18.882;2022-11-20T05:08:26;23.17;;;14.37;;
38379;SDS011;38377;47.418;18.882;2022-11-20T05:10:52;26.80;;;14.83;;
38379;SDS011;38377;47.418;18.882;2022-11-20T05:13:18;26.07;;;14.07;;
38379;SDS011;38377;47.418;18.882;2022-11-20T05:15:43;27.47;;;16.27;;
38379;SDS011;38377;47.418;18.882;2022-11-20T05:18:09;29.83;;;16.50;;
38379;SDS011;38377;47.418;18.882;2022-11-20T05:20:35;25.70;;;15.33;;
38379;SDS011;38377;47.418;18.882;2022-11-20T05:23:01;30.97;;;17.60;;
38379;SDS011;38377;47.418;18.882;2022-11-20T05:25:27;28.17;;;16.00;;
38379;SDS011;38377;47.418;18.882;2022-11-20T05:27:53;29.23;;;16.30;;
38379;SDS011;38377;47.418;18.882;2022-11-20T05:30:19;28.03;;;14.77;;
38379;SDS011;38377;47.418;18.882;2022-11-20T05:32:44;26.43;;;14.23;;
38379;SDS011;38377;47.418;18.882;2022-11-20T05:35:10;26.07;;;15.23;;
38379;SDS011;38377;47.418;18.882;2022-11-20T05:37:35;24.80;;;14.70;;
38379;SDS011;38377;47.418;18.882;2022-11-20T05:40:01;25.67;;;15.53;;
38379;SDS011;38377;47.418;18.882;2022-11-20T05:42:30;31.90;;;17.63;;
38379;SDS011;38377;47.418;18.882;2022-11-20T05:45:02;26.90;;;15.20;;
38379;SDS011;38377;47.418;18.882;2022-11-20T05:47:31;26.20;;;15.23;;
38379;SDS011;38377;47.418;18.882;2022-11-20T05:49:58;32.10;;;17.43;;
38379;SDS011;38377;47.418;18.882;2022-11-20T05:52:24;25.07;;;15.40;;
38379;SDS011;38377;47.418;18.882;2022-11-20T05:54:52;26.57;;;15.10;;
38379;SDS011;38377;47.418;18.882;2022-11-20T05:57:18;26.77;;;15.77;;
38379;SDS011;38377;47.418;18.882;2022-11-20T05:59:43;22.47;;;12.93;;
38379;SDS011;38377;47.418;18.882;2022-11-20T06:02:09;24.00;;;14.80;;
38379;SDS011;38377;47.418;18.882;2022-11-20T06:04:35;25.00;;;14.33;;
38379;SDS011;38377;47.418;18.882;2022-11-20T06:07:00;37.97;;;21.50;;
38379;SDS011;38377;47.418;18.882;2022-11-20T06:09:26;33.63;;;21.13;;
38379;SDS011;38377;47.418;18.882;2022-11-20T06:11:52;23.70;;;14.43;;
38379;SDS011;38377;47.418;18.882;2022-11-20T06:14:18;22.93;;;14.03;;
38379;SDS011;38377;47.418;18.882;2022-11-20T06:16:43;23.97;;;14.40;;
38379;SDS011;38377;47.418;18.882;2022-11-20T06:19:09;25.63;;;14.67;;
38379;SDS011;38377;47.418;18.882;2022-11-20T06:21:34;24.63;;;15.73;;
38379;SDS011;38377;47.418;18.882;2022-11-20T06:24:02;25.33;;;15.67;;
38379;SDS011;38377;47.418;18.882;2022-11-20T06:26:29;25.83;;;15.23;;
38379;SDS011;38377;47.418;18.882;2022-11-20T06:28:55;22.03;;;12.87;;
38379;SDS011;38377;47.418;18.882;2022-11-20T06:31:22;21.27;;;13.60;;
38379;SDS011;38377;47.418;18.882;2022-11-20T06:33:49;20.80;;;13.20;;
38379;SDS011;38377;47.418;18.882;2022-11-20T06:36:16;25.47;;;14.33;;
38379;SDS011;38377;47.418;18.882;2022-11-20T06:38:44;23.10;;;13.63;;
38379;SDS011;38377;47.418;18.882;2022-11-20T06:41:11;24.13;;;13.87;;
38379;SDS011;38377;47.418;18.882;2022-11-20T06:43:39;23.00;;;13.83;;
38379;SDS011;38377;47.418;18.882;2022-11-20T06:46:04;37.87;;;24.07;;
38379;SDS011;38377;47.418;18.882;2022-11-20T06:48:34;24.67;;;15.90;;
38379;SDS011;38377;47.418;18.882;2022-11-20T06:51:02;24.67;;;15.13;;
38379;SDS011;38377;47.418;18.882;2022-11-20T06:53:29;24.03;;;15.30;;
38379;SDS011;38377;47.418;18.882;2022-11-20T06:55:55;24.47;;;15.53;;
38379;SDS011;38377;47.418;18.882;2022-11-20T06:58:22;24.73;;;14.10;;
38379;SDS011;38377;47.418;18.882;2022-11-20T07:00:50;21.60;;;13.57;;
38379;SDS011;38377;47.418;18.882;2022-11-20T07:03:16;21.83;;;13.53;;
38379;SDS011;38377;47.418;18.882;2022-11-20T07:05:42;22.80;;;14.27;;
38379;SDS011;38377;47.418;18.882;2022-11-20T07:08:09;26.40;;;14.80;;
38379;SDS011;38377;47.418;18.882;2022-11-20T07:10:35;24.20;;;14.53;;
38379;SDS011;38377;47.418;18.882;2022-11-20T07:13:01;25.60;;;15.20;;
38379;SDS011;38377;47.418;18.882;2022-11-20T07:15:26;24.67;;;14.63;;
38379;SDS011;38377;47.418;18.882;2022-11-20T07:17:52;26.17;;;15.40;;
38379;SDS011;38377;47.418;18.882;2022-11-20T07:20:18;24.93;;;16.17;;
38379;SDS011;38377;47.418;18.882;2022-11-20T07:22:44;27.60;;;16.03;;
38379;SDS011;38377;47.418;18.882;2022-11-20T07:25:10;24.10;;;13.80;;
38379;SDS011;38377;47.418;18.882;2022-11-20T07:27:35;26.67;;;14.80;;
38379;SDS011;38377;47.418;18.882;2022-11-20T07:30:01;28.30;;;16.90;;
38379;SDS011;38377;47.418;18.882;2022-11-20T07:32:28;26.53;;;14.70;;
38379;SDS011;38377;47.418;18.882;2022-11-20T07:34:53;28.20;;;16.73;;
38379;SDS011;38377;47.418;18.882;2022-11-20T07:37:19;28.03;;;16.43;;
38379;SDS011;38377;47.418;18.882;2022-11-20T07:39:45;26.13;;;15.73;;
38379;SDS011;38377;47.418;18.882;2022-11-20T07:42:10;26.77;;;15.00;;
38379;SDS011;38377;47.418;18.882;2022-11-20T07:44:37;25.83;;;16.33;;
38379;SDS011;38377;47.418;18.882;2022-11-20T07:47:03;28.17;;;17.20;;
38379;SDS011;38377;47.418;18.882;2022-11-20T07:49:29;28.47;;;18.13;;
38379;SDS011;38377;47.418;18.882;2022-11-20T07:51:54;27.30;;;17.20;;
38379;SDS011;38377;47.418;18.882;2022-11-20T07:54:20;32.80;;;17.83;;
38379;SDS011;38377;47.418;18.882;2022-11-20T07:56:47;28.07;;;16.60;;
38379;SDS011;38377;47.418;18.882;2022-11-20T07:59:13;28.73;;;15.47;;
38379;SDS011;38377;47.418;18.882;2022-11-20T08:01:39;29.23;;;15.60;;
38379;SDS011;38377;47.418;18.882;2022-11-20T08:04:05;25.60;;;15.30;;
38379;SDS011;38377;47.418;18.882;2022-11-20T08:06:31;29.63;;;17.20;;
38379;SDS011;38377;47.418;18.882;2022-11-20T08:08:57;32.67;;;19.30;;
38379;SDS011;38377;47.418;18.882;2022-11-20T08:11:23;33.87;;;18.90;;
38379;SDS011;38377;47.418;18.882;2022-11-20T08:14:07;30.17;;;18.57;;
38379;SDS011;38377;47.418;18.882;2022-11-20T08:16:39;34.30;;;18.87;;
38379;SDS011;38377;47.418;18.882;2022-11-20T08:19:09;31.90;;;18.95;;
38379;SDS011;38377;47.418;18.882;2022-11-20T08:21:36;31.23;;;18.10;;
38379;SDS011;38377;47.418;18.882;2022-11-20T08:24:02;34.47;;;18.67;;
38379;SDS011;38377;47.418;18.882;2022-11-20T08:26:28;37.27;;;21.10;;
38379;SDS011;38377;47.418;18.882;2022-11-20T08:28:54;35.20;;;21.03;;
38379;SDS011;38377;47.418;18.882;2022-11-20T08:31:21;37.30;;;22.00;;
38379;SDS011;38377;47.418;18.882;2022-11-20T08:33:48;32.97;;;18.77;;
38379;SDS011;38377;47.418;18.882;2022-11-20T08:36:13;30.97;;;18.13;;
38379;SDS011;38377;47.418;18.882;2022-11-20T08:38:39;30.87;;;19.10;;
38379;SDS011;38377;47.418;18.882;2022-11-20T08:41:08;33.17;;;19.47;;
38379;SDS011;38377;47.418;18.882;2022-11-20T08:44:02;27.83;;;17.47;;
38379;SDS011;38377;47.418;18.882;2022-11-20T08:46:38;28.40;;;17.00;;
38379;SDS011;38377;47.418;18.882;2022-11-20T08:49:07;30.93;;;16.87;;
38379;SDS011;38377;47.418;18.882;2022-11-20T08:51:35;28.53;;;17.83;;
38379;SDS011;38377;47.418;18.882;2022-11-20T08:54:01;28.10;;;17.57;;
38379;SDS011;38377;47.418;18.882;2022-11-20T08:56:27;26.43;;;16.57;;
38379;SDS011;38377;47.418;18.882;2022-11-20T08:58:53;27.77;;;17.43;;
38379;SDS011;38377;47.418;18.882;2022-11-20T09:01:20;29.47;;;18.60;;
38379;SDS011;38377;47.418;18.882;2022-11-20T09:03:48;29.03;;;19.27;;
38379;SDS011;38377;47.418;18.882;2022-11-20T09:06:14;36.87;;;24.63;;
38379;SDS011;38377;47.418;18.882;2022-11-20T09:08:40;32.37;;;22.90;;
38379;SDS011;38377;47.418;18.882;2022-11-20T09:11:07;37.63;;;24.33;;
38379;SDS011;38377;47.418;18.882;2022-11-20T09:13:33;34.15;;;23.20;;
38379;SDS011;38377;47.418;18.882;2022-11-20T09:16:07;40.85;;;27.27;;
38379;SDS011;38377;47.418;18.882;2022-11-20T09:18:34;60.72;;;40.45;;
38379;SDS011;38377;47.418;18.882;2022-11-20T09:21:05;30.97;;;21.63;;
38379;SDS011;38377;47.418;18.882;2022-11-20T09:23:33;37.55;;;23.55;;
38379;SDS011;38377;47.418;18.882;2022-11-20T09:26:10;26.23;;;16.60;;
38379;SDS011;38377;47.418;18.882;2022-11-20T09:28:36;29.13;;;19.48;;
38379;SDS011;38377;47.418;18.882;2022-11-20T09:31:05;35.67;;;22.55;;
38379;SDS011;38377;47.418;18.882;2022-11-20T09:33:46;31.70;;;21.88;;
38379;SDS011;38377;47.418;18.882;2022-11-20T09:36:12;28.90;;;19.60;;
38379;SDS011;38377;47.418;18.882;2022-11-20T09:38:38;24.70;;;17.30;;
38379;SDS011;38377;47.418;18.882;2022-11-20T09:41:04;25.08;;;16.05;;
38379;SDS011;38377;47.418;18.882;2022-11-20T09:43:37;27.33;;;17.00;;
38379;SDS011;38377;47.418;18.882;2022-11-20T09:49:20;26.63;;;17.03;;
38379;SDS011;38377;47.418;18.882;2022-11-20T09:51:57;26.15;;;16.50;;
38379;SDS011;38377;47.418;18.882;2022-11-20T09:54:29;22.40;;;15.18;;
38379;SDS011;38377;47.418;18.882;2022-11-20T09:59:55;21.27;;;13.23;;
38379;SDS011;38377;47.418;18.882;2022-11-20T10:07:52;26.13;;;16.45;;
38379;SDS011;38377;47.418;18.882;2022-11-20T10:22:03;27.50;;;18.17;;
38379;SDS011;38377;47.418;18.882;2022-11-20T10:25:10;25.05;;;16.20;;
38379;SDS011;38377;47.418;18.882;2022-11-20T10:30:34;26.83;;;16.95;;
38379;SDS011;38377;47.418;18.882;2022-11-20T10:33:06;25.00;;;15.13;;
38379;SDS011;38377;47.418;18.882;2022-11-20T10:35:38;23.67;;;15.70;;
38379;SDS011;38377;47.418;18.882;2022-11-20T10:41:11;28.30;;;17.02;;
38379;SDS011;38377;47.418;18.882;2022-11-20T10:43:58;25.50;;;16.48;;
38379;SDS011;38377;47.418;18.882;2022-11-20T10:46:40;27.13;;;17.42;;
38379;SDS011;38377;47.418;18.882;2022-11-20T10:49:13;30.98;;;19.83;;
38379;SDS011;38377;47.418;18.882;2022-11-20T10:54:12;32.97;;;22.35;;
38379;SDS011;38377;47.418;18.882;2022-11-20T10:56:48;32.15;;;19.92;;
38379;SDS011;38377;47.418;18.882;2022-11-20T11:01:48;32.75;;;18.98;;
38379;SDS011;38377;47.418;18.882;2022-11-20T11:04:55;36.00;;;21.67;;
38379;SDS011;38377;47.418;18.882;2022-11-20T11:07:13;37.78;;;23.55;;
38379;SDS011;38377;47.418;18.882;2022-11-20T11:09:43;34.45;;;21.17;;
38379;SDS011;38377;47.418;18.882;2022-11-20T11:12:14;43.00;;;24.88;;
38379;SDS011;38377;47.418;18.882;2022-11-20T11:14:46;35.83;;;19.77;;
38379;SDS011;38377;47.418;18.882;2022-11-20T11:20:05;35.30;;;19.95;;
38379;SDS011;38377;47.418;18.882;2022-11-20T11:22:46;29.08;;;17.75;;
38379;SDS011;38377;47.418;18.882;2022-11-20T11:25:21;28.98;;;18.48;;
38379;SDS011;38377;47.418;18.882;2022-11-20T11:27:50;28.52;;;17.95;;
38379;SDS011;38377;47.418;18.882;2022-11-20T11:30:19;31.02;;;19.15;;
38379;SDS011;38377;47.418;18.882;2022-11-20T11:32:46;29.33;;;18.83;;
38379;SDS011;38377;47.418;18.882;2022-11-20T11:35:20;32.35;;;19.50;;
38379;SDS011;38377;47.418;18.882;2022-11-20T11:38:03;27.67;;;17.77;;
38379;SDS011;38377;47.418;18.882;2022-11-20T11:40:35;32.38;;;19.60;;
38379;SDS011;38377;47.418;18.882;2022-11-20T11:43:07;30.02;;;18.75;;
38379;SDS011;38377;47.418;18.882;2022-11-20T11:46:03;34.38;;;18.70;;
38379;SDS011;38377;47.418;18.882;2022-11-20T11:57:49;30.92;;;19.40;;
38379;SDS011;38377;47.418;18.882;2022-11-20T12:07:46;34.55;;;19.92;;
38379;SDS011;38377;47.418;18.882;2022-11-20T12:10:21;30.38;;;18.88;;
38379;SDS011;38377;47.418;18.882;2022-11-20T12:15:57;30.27;;;20.08;;
38379;SDS011;38377;47.418;18.882;2022-11-20T12:18:23;32.13;;;20.38;;
38379;SDS011;38377;47.418;18.882;2022-11-20T12:24:21;38.28;;;22.00;;
38379;SDS011;38377;47.418;18.882;2022-11-20T12:40:56;34.05;;;20.60;;
38379;SDS011;38377;47.418;18.882;2022-11-20T12:44:10;39.67;;;22.92;;
38379;SDS011;38377;47.418;18.882;2022-11-20T12:47:11;36.47;;;22.48;;
38379;SDS011;38377;47.418;18.882;2022-11-20T12:49:52;36.35;;;22.08;;
38379;SDS011;38377;47.418;18.882;2022-11-20T12:55:20;37.78;;;23.15;;
38379;SDS011;38377;47.418;18.882;2022-11-20T13:00:41;33.92;;;21.17;;
38379;SDS011;38377;47.418;18.882;2022-11-20T13:06:14;37.15;;;22.27;;
38379;SDS011;38377;47.418;18.882;2022-11-20T13:08:43;36.80;;;23.55;;
38379;SDS011;38377;47.418;18.882;2022-11-20T13:16:36;35.05;;;21.67;;
38379;SDS011;38377;47.418;18.882;2022-11-20T13:19:08;35.27;;;21.63;;
38379;SDS011;38377;47.418;18.882;2022-11-20T13:21:46;35.85;;;21.52;;
38379;SDS011;38377;47.418;18.882;2022-11-20T13:29:33;38.53;;;24.08;;
38379;SDS011;38377;47.418;18.882;2022-11-20T13:32:03;35.22;;;21.30;;
38379;SDS011;38377;47.418;18.882;2022-11-20T13:34:31;33.67;;;21.50;;
38379;SDS011;38377;47.418;18.882;2022-11-20T13:36:58;35.72;;;22.38;;
38379;SDS011;38377;47.418;18.882;2022-11-20T13:39:32;39.85;;;23.52;;
38379;SDS011;38377;47.418;18.882;2022-11-20T13:42:00;38.25;;;23.45;;
38379;SDS011;38377;47.418;18.882;2022-11-20T13:47:03;36.47;;;23.17;;
38379;SDS011;38377;47.418;18.882;2022-11-20T13:49:42;36.45;;;22.10;;
38379;SDS011;38377;47.418;18.882;2022-11-20T13:55:10;34.88;;;21.55;;
38379;SDS011;38377;47.418;18.882;2022-11-20T13:57:49;37.05;;;21.75;;
38379;SDS011;38377;47.418;18.882;2022-11-20T14:00:22;36.40;;;23.05;;
38379;SDS011;38377;47.418;18.882;2022-11-20T14:05:31;27.20;;;16.92;;
38379;SDS011;38377;47.418;18.882;2022-11-20T14:08:02;34.90;;;21.50;;
38379;SDS011;38377;47.418;18.882;2022-11-20T14:10:30;32.85;;;20.33;;
38379;SDS011;38377;47.418;18.882;2022-11-20T14:12:55;34.13;;;21.08;;
38379;SDS011;38377;47.418;18.882;2022-11-20T14:15:29;31.20;;;19.65;;
38379;SDS011;38377;47.418;18.882;2022-11-20T14:17:56;32.40;;;19.20;;
38379;SDS011;38377;47.418;18.882;2022-11-20T14:20:29;32.38;;;20.10;;
38379;SDS011;38377;47.418;18.882;2022-11-20T14:22:56;30.00;;;19.65;;
38379;SDS011;38377;47.418;18.882;2022-11-20T14:25:24;36.28;;;21.98;;
38379;SDS011;38377;47.418;18.882;2022-11-20T14:27:59;42.15;;;22.85;;
38379;SDS011;38377;47.418;18.882;2022-11-20T14:30:27;35.03;;;21.27;;
38379;SDS011;38377;47.418;18.882;2022-11-20T14:33:09;28.48;;;18.23;;
38379;SDS011;38377;47.418;18.882;2022-11-20T14:35:40;31.25;;;18.95;;
38379;SDS011;38377;47.418;18.882;2022-11-20T14:38:11;33.83;;;19.70;;
38379;SDS011;38377;47.418;18.882;2022-11-20T14:40:39;32.35;;;19.45;;
38379;SDS011;38377;47.418;18.882;2022-11-20T14:43:21;32.28;;;20.35;;
38379;SDS011;38377;47.418;18.882;2022-11-20T14:45:58;32.05;;;18.98;;
38379;SDS011;38377;47.418;18.882;2022-11-20T14:48:40;29.95;;;17.98;;
38379;SDS011;38377;47.418;18.882;2022-11-20T14:51:29;30.77;;;19.48;;
38379;SDS011;38377;47.418;18.882;2022-11-20T14:56:59;30.77;;;17.92;;
38379;SDS011;38377;47.418;18.882;2022-11-20T14:59:30;32.97;;;20.40;;
38379;SDS011;38377;47.418;18.882;2022-11-20T15:01:58;41.38;;;26.08;;
38379;SDS011;38377;47.418;18.882;2022-11-20T15:04:26;38.30;;;25.10;;
38379;SDS011;38377;47.418;18.882;2022-11-20T15:06:53;39.77;;;24.70;;
38379;SDS011;38377;47.418;18.882;2022-11-20T15:09:21;41.08;;;24.88;;
38379;SDS011;38377;47.418;18.882;2022-11-20T15:11:57;44.47;;;26.57;;
38379;SDS011;38377;47.418;18.882;2022-11-20T15:14:25;60.13;;;35.53;;
38379;SDS011;38377;47.418;18.882;2022-11-20T15:16:52;56.03;;;32.77;;
38379;SDS011;38377;47.418;18.882;2022-11-20T15:19:20;59.65;;;36.95;;
38379;SDS011;38377;47.418;18.882;2022-11-20T15:21:50;73.03;;;44.53;;
38379;SDS011;38377;47.418;18.882;2022-11-20T15:24:16;81.73;;;53.93;;
38379;SDS011;38377;47.418;18.882;2022-11-20T15:26:43;77.53;;;50.67;;
38379;SDS011;38377;47.418;18.882;2022-11-20T15:29:12;77.70;;;50.57;;
38379;SDS011;38377;47.418;18.882;2022-11-20T15:31:39;73.20;;;50.20;;
38379;SDS011;38377;47.418;18.882;2022-11-20T15:34:10;73.90;;;45.70;;
38379;SDS011;38377;47.418;18.882;2022-11-20T15:36:37;69.00;;;43.63;;
38379;SDS011;38377;47.418;18.882;2022-11-20T15:39:03;73.80;;;42.87;;
38379;SDS011;38377;47.418;18.882;2022-11-20T15:41:29;74.43;;;41.63;;
38379;SDS011;38377;47.418;18.882;2022-11-20T15:43:55;68.23;;;39.80;;
38379;SDS011;38377;47.418;18.882;2022-11-20T15:46:25;63.23;;;37.00;;
38379;SDS011;38377;47.418;18.882;2022-11-20T15:48:56;71.17;;;39.90;;
38379;SDS011;38377;47.418;18.882;2022-11-20T15:51:35;71.97;;;41.93;;
38379;SDS011;38377;47.418;18.882;2022-11-20T15:54:15;74.07;;;43.17;;
38379;SDS011;38377;47.418;18.882;2022-11-20T15:56:44;63.57;;;37.07;;
38379;SDS011;38377;47.418;18.882;2022-11-20T15:59:13;63.13;;;32.80;;
38379;SDS011;38377;47.418;18.882;2022-11-20T16:01:42;59.60;;;34.50;;
38379;SDS011;38377;47.418;18.882;2022-11-20T16:04:09;64.53;;;35.30;;
38379;SDS011;38377;47.418;18.882;2022-11-20T16:06:36;63.73;;;35.70;;
38379;SDS011;38377;47.418;18.882;2022-11-20T16:09:02;62.27;;;34.97;;
38379;SDS011;38377;47.418;18.882;2022-11-20T16:11:29;57.30;;;34.20;;
38379;SDS011;38377;47.418;18.882;2022-11-20T16:13:54;61.20;;;33.10;;
38379;SDS011;38377;47.418;18.882;2022-11-20T16:16:38;63.17;;;33.03;;